createdAt,value
2019-04-03T00:03:14.704Z,48.84
2019-04-03T00:08:16.353Z,48.91
2019-04-03T00:13:17.897Z,49.02
2019-04-03T00:18:19.430Z,49.06
2019-04-03T00:23:22.364Z,49.15
2019-04-03T00:28:24.490Z,49.25
2019-04-03T00:33:26.007Z,49.43
2019-04-03T00:38:27.647Z,49.67
2019-04-03T00:43:29.319Z,49.85
2019-04-03T00:48:30.987Z,49.91
2019-04-03T00:53:32.523Z,50.04
2019-04-03T00:58:39.216Z,50.18
2019-04-03T01:03:41.454Z,50.27
2019-04-03T01:08:43.100Z,50.41
2019-04-03T01:13:44.796Z,50.57
2019-04-03T01:18:46.389Z,50.71
2019-04-03T01:23:47.919Z,50.73
2019-04-03T01:28:49.415Z,50.81
2019-04-03T01:33:51.123Z,50.92
2019-04-03T01:38:52.652Z,51.10
2019-04-03T01:43:54.454Z,51.29
2019-04-03T01:48:56.754Z,51.59
2019-04-03T01:54:02.370Z,51.83
2019-04-03T01:59:03.258Z,51.79
2019-04-03T02:04:05.243Z,51.80
2019-04-03T02:09:08.592Z,51.97
2019-04-03T02:14:10.251Z,52.11
2019-04-03T02:19:11.785Z,52.22
2019-04-03T02:24:13.356Z,52.33
2019-04-03T02:29:14.978Z,52.44
2019-04-03T02:34:16.829Z,52.63
2019-04-03T02:39:18.386Z,52.77
2019-04-03T02:44:20.118Z,52.76
2019-04-03T02:49:22.293Z,52.83
2019-04-03T02:54:28.848Z,52.90
2019-04-03T02:59:30.434Z,53.03
2019-04-03T03:04:32.048Z,53.21
2019-04-03T03:09:33.891Z,53.30
2019-04-03T03:14:38.137Z,53.31
2019-04-03T03:19:39.348Z,53.89
2019-04-03T03:24:42.138Z,53.98
2019-04-03T03:29:44.124Z,54.04
2019-04-03T03:34:56.856Z,54.16
2019-04-03T03:39:50.658Z,54.36
2019-04-03T03:44:53.103Z,54.55
2019-04-03T03:49:55.101Z,54.40
2019-04-03T03:54:57.024Z,54.44
2019-04-03T03:59:59.142Z,54.45
2019-04-03T04:05:01.609Z,54.56
2019-04-03T04:10:04.382Z,54.74
2019-04-03T04:15:06.482Z,54.77
2019-04-03T04:20:08.502Z,54.83
2019-04-03T04:25:10.227Z,54.89
2019-04-03T04:30:14.358Z,55.00
2019-04-03T04:35:15.929Z,55.05
2019-04-03T04:40:17.460Z,55.16
2019-04-03T04:45:19.144Z,55.19
2019-04-03T04:50:20.980Z,55.50
2019-04-03T04:55:22.684Z,55.85
2019-04-03T05:00:24.357Z,55.77
2019-04-03T05:05:27.192Z,55.73
2019-04-03T05:10:29.413Z,55.66
2019-04-03T05:15:31.204Z,55.70
2019-04-03T05:20:33.396Z,55.72
2019-04-03T05:25:34.918Z,55.74
2019-04-03T05:30:37.891Z,55.80
2019-04-03T05:35:39.992Z,55.77
2019-04-03T05:40:41.570Z,55.83
2019-04-03T05:45:43.206Z,55.86
2019-04-03T05:50:45.146Z,55.75
2019-04-03T05:55:46.761Z,55.80
2019-04-03T06:00:48.359Z,55.75
2019-04-03T06:05:50.088Z,55.74
2019-04-03T06:10:51.897Z,55.86
2019-04-03T06:15:53.763Z,55.89
2019-04-03T06:20:55.810Z,56.15
2019-04-03T06:26:00.724Z,56.32
2019-04-03T06:31:01.046Z,56.23
2019-04-03T06:36:02.880Z,56.12
2019-04-03T06:41:04.437Z,56.06
2019-04-03T06:46:05.989Z,56.12
2019-04-03T06:51:08.263Z,56.12
2019-04-03T06:56:10.459Z,56.07
2019-04-03T07:01:12.638Z,55.93
2019-04-03T07:06:14.756Z,55.78
2019-04-03T07:11:23.174Z,55.80
2019-04-03T07:16:20.402Z,55.78
2019-04-03T07:21:22.729Z,55.65
2019-04-03T07:26:25.035Z,55.51
2019-04-03T07:31:26.672Z,55.39
2019-04-03T07:36:28.209Z,55.31
2019-04-03T07:41:29.767Z,55.22
2019-04-03T07:46:31.511Z,55.06
2019-04-03T07:51:34.734Z,54.79
2019-04-03T07:56:36.272Z,54.79
2019-04-03T08:01:40.323Z,54.62
2019-04-03T08:06:41.411Z,54.61
2019-04-03T08:11:42.935Z,54.71
2019-04-03T08:16:45.930Z,54.72
2019-04-03T08:21:48.322Z,54.59
2019-04-03T08:26:51.975Z,54.59
2019-04-03T08:31:53.673Z,54.29
2019-04-03T08:36:55.296Z,54.23
2019-04-03T08:41:57.288Z,54.04
2019-04-03T08:46:58.996Z,53.56
2019-04-03T08:52:00.539Z,53.52
2019-04-03T08:57:02.338Z,53.40
2019-04-03T09:02:03.999Z,53.19
2019-04-03T09:07:05.646Z,53.01
2019-04-03T09:12:07.995Z,53.15
2019-04-03T09:17:09.750Z,53.14
2019-04-03T09:22:11.809Z,53.12
2019-04-03T09:27:13.549Z,53.09
2019-04-03T09:32:15.081Z,53.08
2019-04-03T09:37:18.172Z,52.94
2019-04-03T09:42:21.338Z,53.00
2019-04-03T09:47:23.422Z,53.12
2019-04-03T09:52:37.378Z,53.01
2019-04-03T09:57:30.186Z,52.86
2019-04-03T10:02:32.064Z,52.98
2019-04-03T10:07:36.332Z,52.98
2019-04-03T10:12:37.224Z,53.07
2019-04-03T10:17:39.622Z,53.28
2019-04-03T10:22:41.706Z,53.53
2019-04-03T10:27:43.724Z,53.27
2019-04-03T10:32:45.704Z,52.36
2019-04-03T10:37:47.636Z,52.33
2019-04-03T10:42:49.342Z,52.33
2019-04-03T10:47:50.951Z,52.23
2019-04-03T10:52:52.572Z,51.92
2019-04-03T10:57:54.219Z,51.57
2019-04-03T11:02:56.265Z,51.54
2019-04-03T11:07:58.150Z,51.64
2019-04-03T11:13:00.896Z,51.73
2019-04-03T11:18:03.858Z,51.79
2019-04-03T11:23:08.160Z,51.39
2019-04-03T11:28:09.348Z,50.58
2019-04-03T11:33:13.423Z,47.95
2019-04-03T11:38:24.012Z,45.11
2019-04-03T11:43:18.084Z,43.38
2019-04-03T11:48:19.727Z,42.40
2019-04-03T11:53:21.633Z,42.62
2019-04-03T11:58:23.453Z,47.01
2019-04-03T12:03:25.253Z,41.89
2019-04-03T12:08:28.526Z,43.89
2019-04-03T12:13:30.769Z,45.12
2019-04-03T12:18:34.177Z,45.54
2019-04-03T12:23:38.780Z,46.03
2019-04-03T12:28:39.579Z,45.83
2019-04-03T12:33:52.008Z,45.40
2019-04-03T12:38:44.606Z,45.26
2019-04-03T12:43:46.161Z,44.27
2019-04-03T12:48:48.694Z,43.15
2019-04-03T12:53:51.373Z,41.97
2019-04-03T12:58:53.132Z,41.56
2019-04-03T13:03:56.415Z,41.95
2019-04-03T13:08:58.488Z,43.44
2019-04-03T13:14:00.376Z,44.38
2019-04-03T13:19:02.075Z,41.07
2019-04-03T13:24:04.195Z,39.85
2019-04-03T13:29:08.179Z,39.52
2019-04-03T13:34:11.167Z,39.96
2019-04-03T13:39:12.907Z,40.39
2019-04-03T13:44:33.959Z,40.58
2019-04-03T13:49:35.686Z,40.48
2019-04-03T13:54:37.241Z,40.19
2019-04-03T13:59:38.767Z,40.50
2019-04-03T14:04:40.318Z,43.06
2019-04-03T14:09:41.942Z,44.18
2019-04-03T14:14:46.777Z,44.23
2019-04-03T14:19:50.888Z,43.85
2019-04-03T14:24:52.573Z,39.99
2019-04-03T14:29:54.322Z,39.46
2019-04-03T14:35:05.218Z,39.33
2019-04-03T14:39:59.513Z,38.85
2019-04-03T14:45:01.351Z,41.49
2019-04-03T14:50:05.284Z,42.40
2019-04-03T14:55:17.684Z,42.15
2019-04-03T15:00:24.595Z,41.88
2019-04-03T15:05:14.955Z,41.11
2019-04-03T15:10:16.834Z,42.00
2019-04-03T15:15:18.518Z,40.58
2019-04-03T15:20:20.967Z,39.27
2019-04-03T15:25:22.666Z,38.97
2019-04-03T15:30:25.460Z,38.68
2019-04-03T15:35:27.810Z,36.99
2019-04-03T15:40:29.921Z,37.51
2019-04-03T15:45:32.040Z,41.48
2019-04-03T15:50:37.581Z,39.95
2019-04-03T15:55:39.038Z,36.93
2019-04-03T16:00:42.809Z,36.68
2019-04-03T16:05:44.424Z,41.36
2019-04-03T16:10:46.303Z,43.30
2019-04-03T16:15:47.861Z,43.05
2019-04-03T16:20:50.319Z,42.79
2019-04-03T16:25:52.425Z,43.37
2019-04-03T16:30:54.531Z,44.38
2019-04-03T16:35:56.217Z,45.11
2019-04-03T16:40:58.083Z,45.53
2019-04-03T16:45:59.941Z,45.87
2019-04-03T16:51:01.620Z,46.14
2019-04-03T16:56:05.881Z,46.05
2019-04-03T17:01:06.886Z,45.76
2019-04-03T17:06:08.454Z,44.83
2019-04-03T17:11:12.083Z,45.05
2019-04-03T17:16:15.088Z,45.50
2019-04-03T17:21:17.024Z,45.61
2019-04-03T17:26:18.586Z,45.77
2019-04-03T17:31:22.901Z,45.89
2019-04-03T17:36:23.599Z,46.14
2019-04-03T17:41:25.160Z,46.33
2019-04-03T17:46:26.716Z,46.33
2019-04-03T17:51:28.272Z,46.59
2019-04-03T17:56:29.830Z,46.77
2019-04-03T18:01:31.419Z,46.94
2019-04-03T18:06:32.968Z,47.05
2019-04-03T18:11:34.505Z,47.13
2019-04-03T18:16:36.065Z,47.29
2019-04-03T18:21:37.632Z,47.43
2019-04-03T18:26:39.179Z,47.54
2019-04-03T18:31:40.739Z,47.68
2019-04-03T18:36:42.278Z,47.68
2019-04-03T18:41:43.846Z,47.75
2019-04-03T18:46:45.406Z,47.80
2019-04-03T18:51:46.978Z,47.88
2019-04-03T18:56:48.529Z,48.04
2019-04-03T19:01:50.062Z,48.23
2019-04-03T19:06:51.743Z,48.15
2019-04-03T19:11:53.394Z,48.23
2019-04-03T19:16:54.958Z,48.29
2019-04-03T19:21:56.629Z,48.27
2019-04-03T19:26:58.174Z,48.32
2019-04-03T19:31:59.736Z,48.40
2019-04-03T19:37:03.605Z,48.45
2019-04-03T19:42:04.723Z,48.55
2019-04-03T19:47:06.261Z,48.63
2019-04-03T19:52:08.401Z,48.67
2019-04-03T19:57:10.063Z,48.72
2019-04-03T20:02:11.625Z,48.66
2019-04-03T20:07:13.264Z,48.67
2019-04-03T20:12:14.797Z,48.75
2019-04-03T20:17:16.332Z,48.67
2019-04-03T20:22:17.917Z,48.52
2019-04-03T20:27:19.473Z,48.37
2019-04-03T20:32:21.217Z,48.38
2019-04-03T20:37:25.745Z,48.41
2019-04-03T20:42:27.033Z,48.39
2019-04-03T20:47:28.566Z,48.39
2019-04-03T20:52:30.111Z,48.46
2019-04-03T20:57:33.344Z,48.49
2019-04-03T21:02:35.096Z,48.56
2019-04-03T21:07:36.631Z,48.63
2019-04-03T21:12:38.178Z,48.64
2019-04-03T21:17:39.819Z,48.70
2019-04-03T21:22:41.430Z,48.68
2019-04-03T21:27:42.971Z,48.71
2019-04-03T21:32:44.520Z,48.86
2019-04-03T21:37:46.060Z,49.00
2019-04-03T21:42:47.598Z,48.96
2019-04-03T21:47:49.148Z,48.93
2019-04-03T21:52:53.574Z,48.91
2019-04-03T21:57:54.144Z,48.94
2019-04-03T22:02:55.689Z,48.96
2019-04-03T22:07:58.259Z,49.00
2019-04-03T22:13:00.571Z,49.13
2019-04-03T22:18:02.375Z,49.10
2019-04-03T22:23:04.788Z,49.10
2019-04-03T22:28:07.133Z,49.13
2019-04-03T22:33:08.897Z,49.07
2019-04-03T22:38:10.569Z,49.07
2019-04-03T22:43:15.349Z,49.18
2019-04-03T22:48:15.859Z,49.19
2019-04-03T22:53:17.411Z,49.18
2019-04-03T22:58:21.058Z,49.22
2019-04-03T23:03:22.511Z,49.24
2019-04-03T23:08:24.178Z,49.20
2019-04-03T23:13:25.735Z,49.27
2019-04-03T23:18:27.313Z,49.30
2019-04-03T23:23:28.969Z,49.24
2019-04-03T23:28:33.606Z,49.29
2019-04-03T23:33:34.274Z,49.34
2019-04-03T23:38:35.824Z,49.37
2019-04-03T23:43:39.258Z,50.26
2019-04-03T23:48:41.086Z,50.50
2019-04-03T23:53:42.650Z,50.48
2019-04-03T23:58:44.191Z,50.33
